Slide Mountain Weather observations

Data are for 10 minute period ending at time listed.
 Day   Time   Solar   Ave.   Ave.  Ave.  Vector  Max.    Baro.  
  of    of     Rad.   Air    Rel.  Wind   Wind   Wind   Press.  
Year   Day            Temp.  Hum.  Speed  Dir.   Gust           
2017   (PST)  Kw/m2    F      %     mph   deg.    mph     mb.   
-----------------------------------------------------------------
 203    8:40   0.57   59.9    22   13.2    55     27.1    753.7 
 203    8:50   0.59   60.1    22   12.7    52     23.6    753.9 
 203    9:00   0.62   60.1    21   11.8    60     25.3    754.5 
 203    9:10   0.62   60.3    19   12.2    68     24.3    754.0 
 203    9:20   0.07   60.3    19   13.4    66     26.8    754.1 
 203    9:30   0.23   60.7    20   13.0    68     26.4    752.7 
 203    9:40   0.24   60.7    21   11.9    70     24.0    752.7 
 203    9:50   0.20   61.1    21   10.7    71     21.6    753.2 
 203   10:00   0.20   61.6    22   11.8    76     22.0    753.2 
 203   10:10   0.17   61.5    23   10.6    76     22.7    753.6 
 203   10:20   0.10   61.2    26   10.9    76     22.3    756.9 
 203   10:30   0.20   61.8    24   10.1    78     19.9    756.7 
 203   10:40   0.23   62.4    24    9.6    77     23.5    756.7 
 203   10:50   0.27   62.5    25   11.0    80     23.3    756.6 
 203   11:00   0.60   62.4    24   10.7    79     21.7    756.6 
 203   11:10   0.83   62.9    24    8.8    79     18.2    756.6 
 203   11:20   0.83   63.4    24    8.2    80     17.2    756.5 
 203   11:30   0.84   63.2    24    8.3    76     21.3    756.6 
 203   11:40   0.85   63.2    24    9.7    78     19.6    756.6 
 203   11:50   0.85   64.1    24   10.4    90     21.4    756.6 
 203   12:00   0.85   64.8    23    8.9    90     22.6    756.7 
 203   12:10   0.85   65.4    23    8.4    85     20.6    756.6 
 203   12:20   0.85   65.9    22    7.7    87     17.0    756.5 
 203   12:30   0.85   66.4    22    6.8    90     15.4    756.6 
 203   12:40   0.85   67.6    22    6.9    95     15.4    756.5 
 203   12:50   0.84   66.5    22    8.4    82     21.7    756.5 
 203   13:00   0.84   66.1    22    8.4    78     19.5    756.4 
 203   13:10   0.83   66.3    22    6.2    85     15.3    756.3 
 203   13:20   0.82   66.6    23    5.1    69     17.6    756.3 
 203   13:30   0.81   66.1    23    6.3    72     19.1    756.1 
 203   13:40   0.79   66.9    23    5.7    75     14.9    755.8 
 203   13:50   0.79   69.5    22    1.2    95      8.5    755.6 
 203   14:00   0.78   71.3    21    2.6   149      9.9    755.6 
 203   14:10   0.76   72.8    21    2.7   161      9.0    755.4 
 203   14:20   0.75   73.2    20    5.9   154     17.1    755.5 
 203   14:30   0.73   72.3    21    5.1   164     13.2    755.5 
 203   14:40   0.71   72.5    22    4.7   166     12.0    755.3 
 203   14:50   0.69   72.2    23    4.8   149     15.0    755.2 
 203   15:00   0.68   73.4    22    5.3   162     17.8    755.1 
 203   15:10   0.66   73.1    22    5.6   162     15.7    755.0 
 203   15:20   0.63   73.8    22    5.3   160     15.2    754.8 
 203   15:30   0.61   73.0    23    6.6   162     16.4    754.6 
 203   15:40   0.59   73.1    21    5.7   156     13.6    754.4 
 203   15:50   0.56   73.1    20    6.0   154     13.8    754.2 
 203   16:00   0.54   73.1    20    3.5   156     11.6    754.1 
 203   16:10   0.51   73.8    20    1.0   134      3.4    754.1 
 203   16:20   0.48   71.5    21    0.8    21      5.6    753.6 
 203   16:30   0.45   71.8    20    0.0   339      0.9    753.4 
 203   16:40   0.21   70.6    22    0.2   125      1.8    752.8 
 203   16:50   0.39   69.7    23    0.1    61      1.2    753.2 
 203   17:00   0.37   70.4    23    0.1   164      1.1    753.1 
 203   17:10   0.34   71.6    23    0.4   177      4.0    753.0 
 203   17:20   0.31   71.8    24    1.4   157      4.6    752.9 
 203   17:30   0.29   72.3    22    0.0   152      1.0    752.8 
 203   17:40   0.26   71.9    25    0.8   145      3.0    752.8 
 203   17:50   0.23   71.4    27    2.5   174      8.7    752.9 
 203   18:00   0.20   70.1    28    4.3   182      8.9    752.9 
 203   18:10   0.17   69.2    27    1.9   292      8.8    752.9 
 203   18:20   0.14   68.7    29    2.0   230      6.1    753.0 
 203   18:30   0.12   68.2    30    2.8   265      8.2    753.2 
 203   18:40   0.09   67.4    31    3.3   302     10.0    753.2 
 203   18:50   0.06   66.2    32    5.7   310     13.5    753.2 
 203   19:00   0.04   65.4    33    7.3   304     14.8    753.3 
 203   19:10   0.02   64.5    36    8.4   304     15.4    753.7 
 203   19:20   0.01   63.1    40    5.8   308     13.5    754.0 
 203   19:30   0.00   62.4    42    6.3   304     14.3    754.2 
 203   19:40   0.00   62.2    43    6.3   309     13.5    754.4 
 203   19:50   0.00   62.2    40    5.9   311     13.0    754.6 
 203   20:00   0.00   62.9    35    8.0   311     15.1    754.6 
 203   20:10   0.00   62.9    33    8.6   312     15.8    754.6 
 203   20:20   0.00   63.6    29   10.9   313     19.8    754.6 
 203   20:30   0.00   63.7    29   12.1   312     20.2    754.6 
 203   20:40   0.00   63.5    30   10.3   312     19.0    754.6 
 203   20:50   0.00   63.5    30   12.5   312     21.1    754.6 
 203   21:00   0.00   63.4    31   13.4   312     21.7    754.7 
 203   21:10   0.00   63.2    31   13.3   311     22.5    754.8 
 203   21:20   0.00   63.3    29   14.7   312     23.4    754.9 
 203   21:30   0.00   63.1    29   13.3   313     24.8    755.0 
 203   21:40   0.00   63.2    28   12.7   314     21.4    754.9 
 203   21:50   0.00   63.1    27   11.0   316     18.6    754.9 
 203   22:00   0.00   63.2    25   10.1   318     17.0    755.0 
 203   22:10   0.00   63.4    24    8.2   326     13.7    755.0 
 203   22:20   0.00   63.5    23    8.2   325     16.3    755.1 
 203   22:30   0.00   63.6    23    9.3   327     16.8    754.9 
 203   22:40   0.00   63.4    24    9.3   327     16.8    754.9 
 203   22:50   0.00   63.3    24    9.6   327     17.5    755.0 
 203   23:00   0.00   63.2    23   10.0   325     19.3    754.9 
 203   23:10   0.00   63.0    23   10.8   326     18.3    755.0 
 203   23:20   0.00   62.8    24   10.5   328     19.9    755.0 
 203   23:30   0.00   63.0    23   12.1   330     21.6    755.0 
 203   23:40   0.00   63.1    23   13.0   338     22.8    755.0 
 203   23:50   0.00   63.0    23   14.6   345     27.2    755.1 
 204    0:00   0.00   63.0    23   14.7   344     27.7    754.9 
 204    0:10   0.00   63.0    23   15.2   347     26.9    755.1 
 204    0:20   0.00   63.0    23   14.3   345     24.7    755.1 
 204    0:30   0.00   62.7    24   12.5   355     21.3    755.1 
 204    0:40   0.00   62.5    23   13.3     9     25.2    755.0 
 204    0:50   0.00   62.5    23   13.9    11     24.9    755.2 
 204    1:00   0.00   62.4    23   13.9    12     23.7    755.3 
 204    1:10   0.00   62.3    23   14.0    11     24.7    755.2 
 204    1:20   0.00   62.4    22   14.4     9     24.5    755.3 
 204    1:30   0.00   62.5    22   15.2    12     29.5    755.3 
 204    1:40   0.00   62.3    23   15.4    12     26.9    755.2 
 204    1:50   0.00   62.0    23   15.4     8     24.0    755.3 
 204    2:00   0.00   61.8    23   14.4     9     23.0    755.3 
 204    2:10   0.00   61.8    23   15.9     8     26.7    755.3 
 204    2:20   0.00   61.8    23   16.8     7     28.4    755.2 
 204    2:30   0.00   61.8    23   17.4     7     28.4    755.2 
 204    2:40   0.00   61.6    23   15.0    11     27.3    755.2 
 204    2:50   0.00   61.6    23   14.7     8     25.8    755.2 
 204    3:00   0.00   61.5    23   15.4     5     26.2    755.2 
 204    3:10   0.00   61.2    24   14.2     8     23.6    755.3 
 204    3:20   0.00   61.3    24   15.0     8     23.8    755.4 
 204    3:30   0.00   61.1    24   14.6     9     25.8    755.3 
 204    3:40   0.00   60.9    24   14.3     6     25.7    755.5 
 204    3:50   0.00   60.8    24   12.1     5     22.1    755.5 
 204    4:00   0.00   60.6    24   13.1     9     24.9    755.6 
 204    4:10   0.00   60.8    24   14.4    11     25.1    755.6 
 204    4:20   0.00   60.7    24   12.9    16     24.5    755.6 
 204    4:30   0.00   60.5    24   14.6    20     24.2    755.6 
 204    4:40   0.00   60.6    24   13.9    18     23.0    755.7 
 204    4:50   0.00   60.3    25   11.8     9     19.9    755.8 
 204    5:00   0.01   60.2    25   13.0     7     20.7    755.7 
 204    5:10   0.01   60.4    25   14.1     8     22.9    755.8 
 204    5:20   0.03   60.6    25   13.6    12     22.2    755.7 
 204    5:30   0.05   60.7    25   12.3    25     21.3    755.8 
 204    5:40   0.08   61.2    25   12.4    25     21.4    755.8 
 204    5:50   0.11   61.2    25   11.1    27     19.6    755.4 
 204    6:00   0.13   61.3    25   11.8    28     20.1    755.3 
 204    6:10   0.16   61.5    25   10.2    24     18.7    755.3 
 204    6:20   0.18   61.8    25   10.4    26     20.3    755.2 
 204    6:30   0.21   62.0    25    9.5    29     18.5    755.2 
 204    6:40   0.24   62.2    26    8.1    34     15.6    755.2 
 204    6:50   0.27   62.8    27    7.4    33     13.9    755.3 
 204    7:00   0.30   63.1    28    6.5    40     13.9    755.3 
 204    7:10   0.32   63.2    30    7.8    56     14.4    755.2 
 204    7:20   0.35   63.6    28    6.5    50     14.0    755.3 
 204    7:30   0.38   63.8    28    5.2    44     13.1    755.2 
 204    7:40   0.41   64.0    30    6.4    69     13.9    755.2 
 204    7:50   0.44   63.5    34    5.7    58     13.1    755.0 
 204    8:00   0.47   63.2    34    4.8    60     11.0    754.9 
 204    8:10   0.51   63.9    33    3.8    75      9.0    755.7 
 204    8:20   0.52   64.4    31    2.4    74      9.5    756.3 
 204    8:30   0.57   67.2    27    0.2    74      1.8    756.5 

Return to Slide Mountain graphs page.


Western Regional Climate Center,wrcc@dri.edu